Time;durP1;ratioP1;P1;durP2;ratioP2;P2;SDS_P1;SDS_P2;PMS_P1;PMS_P2;Temp;Humidity;BMP_temperature;BMP_pressure;BME280_temperature;BME280_humidity;BME280_pressure;Samples;Min_cycle;Max_cycle;Signal;HPM_P1;HPM_P2
2022/03/07 00:00:56;;;;;;;17.42;11.20;;;1.80;82.00;;;-1.01;80.60;101626.25;5008274;28;20042;-83
2022/03/07 00:03:25;;;;;;;21.00;12.55;;;1.80;82.10;;;-1.03;81.18;101628.16;5029007;28;20041;-83
2022/03/07 00:05:52;;;;;;;18.80;11.85;;;1.80;82.20;;;-1.01;81.39;101636.06;5029335;28;20080;-83
2022/03/07 00:08:20;;;;;;;21.65;11.50;;;1.80;82.50;;;-1.07;81.60;101636.41;5028897;28;20037;-83
2022/03/07 00:10:47;;;;;;;21.92;11.90;;;1.70;82.50;;;-1.13;81.39;101634.06;5028248;28;20041;-83
2022/03/07 00:13:14;;;;;;;18.38;11.65;;;1.70;82.60;;;-1.12;81.87;101641.13;5029248;28;20052;-83
2022/03/07 00:15:42;;;;;;;18.98;11.60;;;1.70;82.70;;;-1.14;82.00;101641.22;5011028;28;20327;-83
2022/03/07 00:18:10;;;;;;;20.95;11.93;;;1.70;82.80;;;-1.09;82.50;101646.31;5028913;28;20503;-83
2022/03/07 00:20:37;;;;;;;22.33;12.25;;;1.70;83.10;;;-1.02;82.32;101650.38;5028572;28;20132;-83
2022/03/07 00:23:05;;;;;;;18.75;11.63;;;1.70;83.10;;;-0.99;81.88;101660.88;5028791;28;20133;-83
2022/03/07 00:25:32;;;;;;;22.38;12.70;;;1.70;83.30;;;-0.95;82.32;101656.25;5028741;28;20052;-84
2022/03/07 00:27:59;;;;;;;21.10;12.88;;;1.70;83.50;;;-0.85;81.75;101661.03;5028747;28;20065;-83
2022/03/07 00:30:26;;;;;;;21.52;12.20;;;1.70;83.40;;;-0.92;82.31;101648.94;5028667;28;20072;-83
2022/03/07 00:32:54;;;;;;;21.02;12.98;;;1.70;83.60;;;-0.82;81.78;101657.31;5010987;28;20049;-83
2022/03/07 00:35:22;;;;;;;22.40;12.55;;;1.70;83.60;;;-0.87;81.57;101649.56;5028994;28;20476;-83
2022/03/07 00:37:49;;;;;;;24.90;13.23;;;1.70;83.70;;;-0.82;81.24;101647.50;4998992;28;20038;-83
2022/03/07 00:40:17;;;;;;;21.52;12.70;;;1.70;83.80;;;-0.91;81.83;101650.69;5009034;28;20236;-83
2022/03/07 00:42:45;;;;;;;21.65;13.48;;;1.70;83.50;;;-0.86;81.63;101653.09;5002605;28;20111;-83
2022/03/07 00:45:14;;;;;;;22.35;13.82;;;1.70;83.50;;;-0.83;81.57;101653.78;5010736;28;20037;-83
2022/03/07 00:47:41;;;;;;;25.52;13.23;;;1.70;83.70;;;-0.91;81.79;101648.00;5032070;28;20079;-82
2022/03/07 00:50:10;;;;;;;26.33;14.32;;;1.70;83.50;;;-0.81;82.02;101648.38;5032007;28;20049;-83
2022/03/07 00:52:39;;;;;;;23.02;13.13;;;1.70;83.70;;;-0.77;81.63;101654.41;5013674;28;20041;-83
2022/03/07 00:55:09;;;;;;;23.80;14.05;;;1.70;83.40;;;-0.87;81.42;101657.56;5032110;28;20050;-83
2022/03/07 00:57:37;;;;;;;27.52;14.32;;;1.70;83.50;;;-0.75;81.53;101655.19;5014145;28;20431;-83
2022/03/07 01:00:06;;;;;;;26.95;15.15;;;1.80;83.60;;;-0.79;81.02;101647.31;5013999;28;20041;-83
2022/03/07 01:02:35;;;;;;;24.35;14.60;;;1.70;83.30;;;-0.90;81.03;101649.72;5007078;28;20056;-83
2022/03/07 01:05:02;;;;;;;24.10;14.95;;;1.70;83.40;;;-0.84;81.14;101643.19;4998565;28;20041;-83
2022/03/07 01:07:29;;;;;;;25.13;14.45;;;1.70;83.60;;;-0.93;81.41;101644.56;5031564;28;20487;-83
2022/03/07 01:09:58;;;;;;;22.42;15.00;;;1.70;83.50;;;-0.89;81.43;101645.25;5031143;28;20096;-83
2022/03/07 01:12:25;;;;;;;28.77;15.80;;;1.70;83.70;;;-0.90;81.12;101643.50;5020098;28;20145;-83
2022/03/07 01:14:52;;;;;;;25.70;15.02;;;1.70;83.60;;;-0.85;81.29;101645.00;5013810;28;20057;-83
2022/03/07 01:17:20;;;;;;;26.73;15.43;;;1.70;83.70;;;-0.79;81.71;101647.31;5013947;28;20048;-83
2022/03/07 01:19:47;;;;;;;29.23;15.15;;;1.70;83.90;;;-0.82;81.43;101636.81;5013875;28;20201;-83
2022/03/07 01:22:14;;;;;;;24.33;15.15;;;1.70;83.90;;;-0.80;81.82;101634.94;5013739;28;20132;-83
2022/03/07 01:24:42;;;;;;;22.52;13.98;;;1.70;84.00;;;-0.87;81.79;101638.00;5031597;28;20116;-83
2022/03/07 01:27:10;;;;;;;24.33;15.07;;;1.60;84.10;;;-1.00;82.01;101632.47;5031370;28;20132;-84
2022/03/07 01:29:37;;;;;;;24.42;14.90;;;1.60;84.00;;;-1.06;82.34;101639.00;5031437;28;20069;-83
2022/03/07 01:32:06;;;;;;;25.33;15.20;;;1.60;84.10;;;-1.00;82.55;101632.47;5031030;28;20096;-83
2022/03/07 01:34:33;;;;;;;24.38;14.82;;;1.60;84.10;;;-0.96;82.38;101639.38;5031436;28;20043;-83
2022/03/07 01:37:00;;;;;;;24.85;14.95;;;1.60;84.20;;;-1.01;83.04;101644.97;5031517;28;20055;-84
2022/03/07 01:39:28;;;;;;;24.95;15.45;;;1.60;84.30;;;-1.12;83.06;101641.13;5013518;28;20717;-83
2022/03/07 01:41:55;;;;;;;25.30;15.38;;;1.60;84.10;;;-1.13;83.62;101642.94;5013432;28;20076;-83
2022/03/07 01:44:27;;;;;;;25.85;15.23;;;1.60;84.40;;;-1.03;83.99;101644.19;5030658;28;20049;-83
2022/03/07 01:46:55;;;;;;;27.88;14.90;;;1.60;84.60;;;-1.03;82.72;101638.84;5013348;28;20434;-83
2022/03/07 01:49:23;;;;;;;27.17;14.50;;;1.60;84.40;;;-1.03;83.24;101632.63;5030813;28;20045;-83
2022/03/07 01:51:52;;;;;;;24.40;14.77;;;1.60;84.70;;;-1.03;83.28;101632.63;5031001;28;20099;-83
2022/03/07 01:54:23;;;;;;;23.77;15.15;;;1.50;84.90;;;-1.08;83.26;101635.53;4998119;28;20042;-83
2022/03/07 01:56:55;;;;;;;24.60;14.95;;;1.60;84.60;;;-1.07;83.26;101631.91;5025262;28;20135;-83
2022/03/07 01:59:26;;;;;;;28.45;14.70;;;1.60;84.70;;;-1.03;83.23;101638.84;5028769;28;20060;-83
2022/03/07 02:01:55;;;;;;;26.52;14.88;;;1.60;84.60;;;-0.98;83.28;101633.25;5026279;28;20136;-83
2022/03/07 02:04:23;;;;;;;29.80;15.75;;;1.60;84.90;;;-1.06;83.35;101639.00;5016192;28;20053;-83
2022/03/07 02:06:51;;;;;;;28.00;14.85;;;1.60;84.90;;;-1.03;83.09;101637.97;5029259;28;20499;-83
2022/03/07 02:09:18;;;;;;;25.98;15.27;;;1.60;84.90;;;-0.98;83.40;101636.75;5046206;28;20046;-83
2022/03/07 02:11:47;;;;;;;27.92;15.65;;;1.60;84.90;;;-0.84;82.74;101627.13;5028930;28;20049;-83
2022/03/07 02:14:19;;;;;;;24.63;15.35;;;1.60;85.00;;;-0.83;83.19;101623.53;5029624;28;20049;-83
2022/03/07 02:16:52;;;;;;;24.38;15.13;;;1.60;85.00;;;-0.91;83.09;101626.63;5029187;28;20419;-83
2022/03/07 02:19:20;;;;;;;24.88;15.57;;;1.60;85.00;;;-0.89;83.59;101616.72;5029482;28;20127;-83
2022/03/07 02:21:50;;;;;;;30.38;15.40;;;1.60;85.20;;;-0.90;83.72;101617.66;5044615;28;20042;-83
2022/03/07 02:24:31;;;;;;;26.08;16.40;;;1.60;85.20;;;-0.86;83.87;101615.69;5029421;28;20561;-83
2022/03/07 02:27:09;;;;;;;25.90;15.50;;;1.60;85.30;;;-0.90;84.57;101623.00;5028955;28;20056;-83
2022/03/07 02:29:38;;;;;;;25.40;15.30;;;1.60;85.40;;;-0.95;83.88;101625.06;5029206;28;20579;-83
2022/03/07 02:32:09;;;;;;;25.10;15.32;;;1.60;85.30;;;-0.94;83.92;101623.25;5027190;28;20037;-83
2022/03/07 02:34:44;;;;;;;26.02;15.55;;;1.70;85.20;;;-0.94;84.37;101616.09;5030696;28;20051;-83
2022/03/07 02:37:13;;;;;;;24.60;15.73;;;1.70;85.50;;;-0.87;84.60;101611.28;5042110;28;20054;-83
2022/03/07 02:39:47;;;;;;;24.08;15.93;;;1.70;85.80;;;-0.83;85.00;101613.69;5025642;28;20129;-83
2022/03/07 02:42:14;;;;;;;31.33;15.90;;;1.70;85.80;;;-0.82;84.31;101618.13;5016468;28;20060;-83
2022/03/07 02:44:43;;;;;;;24.55;15.93;;;1.70;85.70;;;-0.79;84.88;101617.94;5030277;28;20045;-83
2022/03/07 02:47:14;;;;;;;27.83;15.43;;;1.70;85.90;;;-0.83;84.96;101618.19;5028497;28;20042;-83
2022/03/07 02:49:42;;;;;;;27.13;15.05;;;1.70;86.00;;;-0.76;85.28;101618.69;5028809;28;20503;-83
2022/03/07 02:52:10;;;;;;;25.92;15.88;;;1.70;86.20;;;-0.80;85.22;101620.69;5028426;28;20141;-83
2022/03/07 02:54:38;;;;;;;25.50;15.75;;;1.70;86.10;;;-0.75;84.95;101615.09;5030194;28;20049;-83
2022/03/07 02:57:08;;;;;;;23.70;15.15;;;1.70;86.30;;;-0.67;85.10;101616.38;5029276;28;20048;-83
2022/03/07 02:59:36;;;;;;;29.20;15.77;;;1.70;86.20;;;-0.64;84.99;101618.91;5029903;28;20040;-83
2022/03/07 03:02:04;;;;;;;28.70;15.75;;;1.70;86.20;;;-0.63;84.83;101617.06;5029514;28;20048;-84
2022/03/07 03:04:31;;;;;;;23.02;14.85;;;1.70;86.40;;;-0.55;84.44;101622.00;5010419;28;20061;-83
2022/03/07 03:06:59;;;;;;;25.75;15.10;;;1.80;86.30;;;-0.50;83.35;101618.13;4992328;28;20427;-83
2022/03/07 03:09:27;;;;;;;24.52;14.80;;;1.80;86.00;;;-0.53;83.91;101621.00;5028729;28;20494;-83
2022/03/07 03:11:54;;;;;;;27.63;16.77;;;1.80;86.00;;;-0.46;84.59;101617.03;5011805;28;20049;-84
2022/03/07 03:14:23;;;;;;;24.45;15.27;;;1.80;86.30;;;-0.55;83.95;101622.88;5029764;28;20041;-83
2022/03/07 03:16:50;;;;;;;25.38;15.15;;;1.80;86.20;;;-0.57;84.39;101613.19;5029699;28;20049;-83
2022/03/07 03:19:17;;;;;;;26.17;16.25;;;1.80;86.00;;;-0.49;83.91;101619.84;5026696;28;20523;-83
2022/03/07 03:21:44;;;;;;;27.52;15.65;;;1.90;86.10;;;-0.42;83.57;101623.91;5029099;28;20052;-84
2022/03/07 03:24:12;;;;;;;23.08;15.10;;;1.90;86.00;;;-0.33;82.52;101621.66;5029509;28;20041;-83
2022/03/07 03:26:39;;;;;;;28.85;14.65;;;1.90;85.70;;;-0.34;83.37;101622.59;5029439;28;20539;-83
2022/03/07 03:29:06;;;;;;;24.73;14.85;;;1.90;86.00;;;-0.35;83.13;101635.13;5029302;28;20136;-84
2022/03/07 03:31:34;;;;;;;24.80;14.85;;;1.90;86.00;;;-0.25;82.53;101636.34;5002554;28;20470;-83
2022/03/07 03:34:02;;;;;;;24.15;14.15;;;1.90;85.70;;;-0.16;81.48;101626.91;5029503;28;20038;-83
2022/03/07 03:36:29;;;;;;;24.48;14.38;;;2.00;85.10;;;-0.13;80.98;101637.44;5029388;28;20049;-83
2022/03/07 03:38:56;;;;;;;27.27;14.40;;;2.00;85.00;;;-0.12;81.52;101631.13;5029292;28;20069;-83
2022/03/07 03:41:24;;;;;;;23.98;14.30;;;2.00;85.10;;;-0.10;81.98;101634.59;5028789;28;20045;-83
2022/03/07 03:43:51;;;;;;;20.00;13.18;;;2.00;85.30;;;-0.09;81.19;101636.31;5029095;28;20470;-83
2022/03/07 03:46:18;;;;;;;25.88;14.93;;;2.00;85.30;;;-0.07;81.30;101642.44;5029389;28;20041;-83
2022/03/07 03:48:46;;;;;;;23.02;14.13;;;2.00;85.30;;;-0.06;80.60;101638.84;5028333;28;20105;-82
2022/03/07 03:51:14;;;;;;;21.75;13.50;;;2.00;85.00;;;-0.04;81.45;101639.59;5029283;28;20135;-83
2022/03/07 03:53:41;;;;;;;23.10;14.38;;;2.00;85.40;;;0.02;80.38;101627.69;5016386;28;20041;-83
2022/03/07 03:56:08;;;;;;;22.40;14.00;;;2.10;85.10;;;0.06;80.52;101644.41;5029507;28;20041;-84
2022/03/07 03:58:35;;;;;;;21.88;14.77;;;2.10;85.20;;;0.10;80.00;101645.97;5034871;23;20053;-84
2022/03/07 04:01:03;;;;;;;22.02;14.13;;;2.10;84.90;;;0.06;80.02;101633.69;5008161;28;20042;-84
2022/03/07 04:03:30;;;;;;;23.85;14.27;;;2.20;84.90;;;0.05;80.76;101640.00;5008634;28;20048;-83
2022/03/07 04:05:59;;;;;;;20.80;13.13;;;2.10;85.20;;;0.09;80.01;101637.06;5009013;28;20042;-84
2022/03/07 04:08:27;;;;;;;23.02;13.88;;;2.20;84.80;;;0.14;79.42;101636.81;5008587;28;20109;-84
2022/03/07 04:10:54;;;;;;;21.45;13.60;;;2.20;84.30;;;0.22;79.19;101629.19;5008902;28;20060;-83
2022/03/07 04:13:21;;;;;;;24.63;12.77;;;2.20;84.30;;;0.21;78.55;101635.50;5008620;28;20069;-83
2022/03/07 04:15:48;;;;;;;23.23;13.15;;;2.20;83.90;;;0.16;79.25;101634.91;5009023;28;20096;-84
2022/03/07 04:18:16;;;;;;;21.30;13.43;;;2.20;84.10;;;0.09;79.38;101633.53;5008911;28;20518;-84
2022/03/07 04:20:44;;;;;;;21.45;13.45;;;2.20;84.20;;;0.08;79.58;101643.38;5009242;28;20133;-84
2022/03/07 04:23:13;;;;;;;21.33;13.00;;;2.20;84.20;;;-0.02;80.32;101640.38;5012585;28;20065;-84
2022/03/07 04:25:40;;;;;;;22.67;13.35;;;2.20;84.40;;;-0.04;80.12;101642.28;5012358;28;20085;-84
2022/03/07 04:28:07;;;;;;;22.45;13.93;;;2.20;84.40;;;-0.03;80.03;101635.97;5013049;28;20046;-83
2022/03/07 04:30:35;;;;;;;22.05;13.75;;;2.20;84.50;;;-0.05;80.66;101640.53;5011317;28;20041;-84
2022/03/07 04:33:02;;;;;;;26.35;14.32;;;2.20;84.60;;;-0.08;81.24;101648.72;5011087;28;20100;-84
2022/03/07 04:35:29;;;;;;;27.23;13.95;;;2.20;84.70;;;0.03;80.93;101647.28;5012404;28;20741;-84
2022/03/07 04:37:57;;;;;;;20.75;13.70;;;2.20;84.70;;;0.06;80.91;101649.75;5012527;28;20046;-83
2022/03/07 04:40:25;;;;;;;22.08;14.20;;;2.50;84.90;;;0.03;80.78;101636.56;5012199;28;20189;-84
2022/03/07 04:42:55;;;;;;;23.98;13.93;;;2.20;84.80;;;-0.07;81.69;101645.13;5012395;28;20502;-84
2022/03/07 04:45:24;;;;;;;23.40;13.93;;;2.20;85.00;;;-0.13;82.22;101649.94;4994628;28;20054;-83
2022/03/07 04:47:51;;;;;;;22.98;13.60;;;2.20;85.30;;;-0.15;82.80;101641.16;5012220;28;20124;-83
2022/03/07 04:50:18;;;;;;;22.17;13.65;;;2.20;85.50;;;-0.13;82.76;101634.78;5011766;28;20121;-84
2022/03/07 04:52:46;;;;;;;21.85;13.65;;;2.20;85.50;;;-0.16;82.72;101645.66;5012032;28;20107;-84
2022/03/07 04:55:14;;;;;;;22.13;14.25;;;2.20;85.50;;;-0.16;82.72;101639.44;5012333;28;20045;-84
2022/03/07 04:57:44;;;;;;;24.95;15.13;;;2.10;85.70;;;-0.15;82.82;101642.03;5012195;28;20432;-84
2022/03/07 05:00:13;;;;;;;21.60;13.60;;;2.20;85.90;;;-0.10;83.11;101647.97;5011736;28;20046;-84
2022/03/07 05:02:41;;;;;;;22.60;13.90;;;2.10;85.90;;;-0.17;82.32;101646.63;5011563;28;20060;-84
2022/03/07 05:05:09;;;;;;;22.63;14.57;;;2.10;85.60;;;-0.24;83.34;101642.56;5012165;28;20046;-84
2022/03/07 05:07:36;;;;;;;22.77;13.93;;;2.10;85.80;;;-0.18;83.65;101646.69;4994071;28;20136;-84
2022/03/07 05:10:05;;;;;;;23.17;14.40;;;2.10;86.20;;;-0.17;83.69;101649.28;5011251;28;20145;-84
2022/03/07 05:12:32;;;;;;;24.42;14.27;;;2.10;86.30;;;-0.26;83.60;101644.44;5011540;28;20064;-84
2022/03/07 05:15:01;;;;;;;24.38;14.65;;;2.10;86.30;;;-0.26;83.57;101647.13;5008779;28;20069;-84
2022/03/07 05:17:28;;;;;;;23.40;13.43;;;2.10;86.20;;;-0.26;83.54;101649.81;5011625;28;20504;-84
2022/03/07 05:19:56;;;;;;;24.42;13.77;;;2.10;86.30;;;-0.24;82.88;101650.56;5011356;28;20119;-84
2022/03/07 05:22:25;;;;;;;22.08;14.52;;;2.10;86.10;;;-0.29;83.27;101642.78;5014202;28;20491;-92
2022/03/07 05:24:58;;;;;;;20.88;13.10;;;2.10;86.10;;;-0.28;83.31;101646.34;5014815;28;20046;-91
2022/03/07 05:27:25;;;;;;;21.77;13.25;;;2.10;86.10;;;-0.30;83.89;101649.09;4994715;28;20810;-87
2022/03/07 05:29:55;;;;;;;26.05;14.98;;;2.10;86.40;;;-0.41;84.52;101649.69;5011779;28;20475;-87
2022/03/07 05:32:24;;;;;;;26.67;13.75;;;2.00;86.50;;;-0.37;85.06;101652.22;5010639;28;20069;-86
2022/03/07 05:34:51;;;;;;;25.70;15.02;;;2.00;86.70;;;-0.47;85.02;101646.53;5012426;28;20064;-87
2022/03/07 05:37:18;;;;;;;21.10;13.65;;;2.20;86.70;;;-0.50;84.93;101658.22;5011673;28;20053;-89
2022/03/07 05:39:46;;;;;;;24.25;13.75;;;2.00;86.60;;;-0.53;85.97;101647.72;5013769;28;20448;-89
2022/03/07 05:42:13;;;;;;;23.45;14.40;;;2.00;86.90;;;-0.44;86.01;101655.25;5011643;28;20042;-86
2022/03/07 05:44:40;;;;;;;23.23;13.85;;;2.10;87.30;;;-0.55;85.87;101660.31;5011664;28;20147;-87
2022/03/07 05:47:08;;;;;;;23.95;14.45;;;1.90;87.10;;;-0.61;85.40;101661.50;5011648;28;20042;-86
2022/03/07 05:49:36;;;;;;;22.70;14.10;;;1.90;87.10;;;-0.60;86.05;101673.91;5010932;28;20048;-86
2022/03/07 05:52:07;;;;;;;22.17;14.15;;;1.90;87.30;;;-0.63;86.43;101670.53;5011652;28;20133;-87
2022/03/07 05:54:34;;;;;;;22.80;14.20;;;1.90;87.50;;;-0.69;86.51;101663.72;5011962;28;20042;-88
2022/03/07 05:57:01;;;;;;;21.35;13.80;;;1.90;87.30;;;-0.68;86.14;101675.31;5011792;28;20131;-85
2022/03/07 05:59:29;;;;;;;24.38;14.63;;;1.90;87.30;;;-0.71;86.33;101676.31;5011238;28;20451;-87
2022/03/07 06:01:56;;;;;;;23.90;14.65;;;1.90;87.20;;;-0.64;86.20;101676.84;5011951;28;20050;-87
2022/03/07 06:04:25;;;;;;;22.83;14.90;;;1.90;87.30;;;-0.62;86.34;101669.63;5011850;28;20120;-87
2022/03/07 06:06:53;;;;;;;27.35;14.95;;;1.80;87.40;;;-0.62;86.67;101677.63;5011857;28;20136;-87
2022/03/07 06:09:21;;;;;;;22.60;13.88;;;1.80;87.70;;;-0.70;87.33;101677.19;5010868;28;20112;-86
2022/03/07 06:11:48;;;;;;;22.30;13.82;;;1.80;87.70;;;-0.69;87.29;101678.91;5010810;28;20038;-88
2022/03/07 06:14:15;;;;;;;21.67;13.73;;;1.90;87.90;;;-0.58;87.25;101681.00;5011217;28;20500;-87
2022/03/07 06:16:45;;;;;;;25.17;14.85;;;1.90;87.90;;;-0.63;86.88;101675.91;5011412;28;20070;-91
2022/03/07 06:19:12;;;;;;;23.35;14.43;;;1.90;87.90;;;-0.54;87.13;101678.06;4992961;28;20049;-87
2022/03/07 06:21:40;;;;;;;28.35;14.65;;;1.90;88.00;;;-0.51;87.64;101672.56;4992960;28;20054;-87
2022/03/07 06:24:09;;;;;;;21.45;14.52;;;1.90;88.20;;;-0.51;87.64;101672.56;4993016;28;20104;-82
2022/03/07 06:26:36;;;;;;;22.90;15.02;;;1.90;88.30;;;-0.50;87.28;101674.28;5010670;28;20473;-82
2022/03/07 06:29:05;;;;;;;25.80;14.63;;;1.90;88.20;;;-0.47;87.64;101673.25;5010140;28;20489;-81
2022/03/07 06:31:33;;;;;;;25.73;14.27;;;1.90;88.20;;;-0.37;87.05;101676.28;4998151;28;20065;-83
2022/03/07 06:34:00;;;;;;;27.17;15.32;;;1.90;88.20;;;-0.38;86.90;101664.72;5005498;28;20077;-83
2022/03/07 06:36:27;;;;;;;26.35;15.27;;;1.90;88.30;;;-0.34;87.47;101668.06;5010607;28;20049;-80
2022/03/07 06:38:54;;;;;;;27.27;15.57;;;1.90;88.60;;;-0.34;88.05;101678.75;5010013;28;20038;-79
2022/03/07 06:41:23;;;;;;;22.65;15.23;;;1.90;88.80;;;-0.40;87.88;101678.19;5010230;28;20052;-80
2022/03/07 06:43:50;;;;;;;24.98;15.05;;;2.00;88.60;;;-0.31;87.78;101683.97;5009779;28;20046;-81
2022/03/07 06:46:19;;;;;;;29.00;14.88;;;2.00;88.70;;;-0.28;87.45;101689.16;5010244;28;20053;-83
2022/03/07 06:48:47;;;;;;;25.85;16.00;;;2.10;88.70;;;-0.26;87.46;101684.56;5009485;28;20050;-78
2022/03/07 06:51:14;;;;;;;24.42;14.77;;;2.00;88.60;;;-0.26;87.37;101684.56;5010154;28;20116;-81
2022/03/07 06:53:41;;;;;;;25.58;15.50;;;2.10;88.70;;;-0.16;87.66;101687.59;5004776;28;20056;-82
2022/03/07 06:56:08;;;;;;;22.90;15.13;;;2.10;88.90;;;-0.13;87.87;101682.06;4999066;28;20038;-82
2022/03/07 06:58:37;;;;;;;27.67;16.35;;;2.10;89.00;;;-0.08;88.03;101680.84;5009178;28;20493;-82
2022/03/07 07:01:05;;;;;;;30.27;16.10;;;2.20;89.10;;;-0.04;87.95;101686.88;5024656;28;20033;-81
2022/03/07 07:03:32;;;;;;;24.65;15.00;;;2.20;89.10;;;0.10;87.35;101683.44;5017636;28;20045;-83
2022/03/07 07:05:59;;;;;;;26.42;15.02;;;2.20;88.80;;;0.21;85.71;101694.41;5012918;28;20116;-83
2022/03/07 07:08:26;;;;;;;31.67;15.98;;;2.30;88.70;;;0.30;86.01;101684.94;5016743;28;20134;-83
2022/03/07 07:10:54;;;;;;;25.98;14.32;;;2.30;88.50;;;0.41;84.86;101697.72;5018633;28;20695;-83
2022/03/07 07:13:21;;;;;;;21.70;14.13;;;2.40;88.20;;;0.52;84.42;101701.50;5025474;28;20075;-83
2022/03/07 07:15:55;;;;;;;20.58;13.75;;;2.40;87.90;;;0.56;84.72;101696.81;5015242;28;20110;-83
2022/03/07 07:18:26;;;;;;;21.75;13.63;;;2.50;88.00;;;0.67;84.28;101699.72;5021490;28;20056;-83
2022/03/07 07:20:54;;;;;;;27.33;14.25;;;2.50;87.80;;;0.76;82.69;101688.47;5018238;28;20547;-83
2022/03/07 07:23:22;;;;;;;22.80;13.70;;;2.60;87.20;;;0.83;82.50;101698.81;5016272;28;20073;-83
2022/03/07 07:25:50;;;;;;;27.15;14.10;;;2.60;87.20;;;0.89;81.68;101698.44;5015069;28;20061;-83
2022/03/07 07:28:17;;;;;;;19.27;13.35;;;2.70;87.20;;;0.94;80.55;101686.47;5018824;28;20164;-83
2022/03/07 07:30:46;;;;;;;20.23;12.68;;;2.70;86.40;;;1.06;79.85;101702.78;5015154;28;20041;-83
2022/03/07 07:33:15;;;;;;;21.38;13.60;;;2.80;86.20;;;1.13;79.56;101691.56;5021040;28;20519;-83
2022/03/07 07:35:42;;;;;;;23.67;14.07;;;2.80;85.90;;;1.22;79.39;101695.53;5027918;28;20136;-83
2022/03/07 07:38:10;;;;;;;21.35;12.63;;;2.90;85.50;;;1.31;78.46;101699.44;5011638;28;20470;-83
2022/03/07 07:40:37;;;;;;;22.20;12.75;;;3.00;85.40;;;1.35;78.07;101692.91;5015799;28;20037;-84
2022/03/07 07:43:05;;;;;;;18.33;11.57;;;3.00;84.90;;;1.45;77.40;101694.06;5021954;28;20120;-83
2022/03/07 07:45:32;;;;;;;17.15;10.75;;;3.10;84.40;;;1.55;76.28;101694.34;5026339;28;20050;-83
2022/03/07 07:48:00;;;;;;;22.00;11.82;;;3.20;83.90;;;1.60;76.85;101692.25;5032483;28;20094;-83
2022/03/07 07:50:29;;;;;;;16.27;10.68;;;3.20;83.40;;;1.70;75.92;101690.69;5028704;28;20121;-84
2022/03/07 07:52:56;;;;;;;19.17;10.48;;;3.30;83.40;;;1.79;74.50;101693.75;5028289;28;20132;-84
2022/03/07 07:55:25;;;;;;;18.65;9.82;;;3.30;82.80;;;1.88;75.69;101685.94;5029006;28;20042;-84
2022/03/07 07:57:53;;;;;;;15.23;8.82;;;3.30;83.00;;;2.03;74.92;101685.94;5036447;28;20067;-84
2022/03/07 08:00:21;;;;;;;13.27;7.97;;;3.40;82.50;;;2.16;74.61;101686.84;5033378;28;20064;-84
2022/03/07 08:02:50;;;;;;;12.95;8.43;;;3.50;81.80;;;2.20;72.58;101688.38;5032424;28;20046;-84
2022/03/07 08:05:19;;;;;;;12.32;7.47;;;3.50;81.10;;;2.27;73.73;101696.91;5032921;28;20046;-83
2022/03/07 08:07:48;;;;;;;12.20;7.78;;;3.60;80.70;;;2.35;71.95;101692.72;5029801;28;20133;-82
2022/03/07 08:10:17;;;;;;;11.20;7.25;;;3.70;80.60;;;2.45;73.29;101698.31;5032405;28;20044;-82
2022/03/07 08:12:46;;;;;;;11.00;7.07;;;3.70;80.60;;;2.48;71.65;101697.28;5029549;28;20052;-82
2022/03/07 08:15:14;;;;;;;10.48;7.03;;;3.70;79.90;;;2.51;73.20;101694.38;5032690;28;20488;-82
2022/03/07 08:17:46;;;;;;;13.82;7.40;;;3.80;80.00;;;2.53;71.79;101695.13;5033131;28;20113;-82
2022/03/07 08:20:14;;;;;;;12.77;6.95;;;3.80;80.00;;;2.55;71.17;101690.50;5035291;28;20041;-82
2022/03/07 08:22:41;;;;;;;12.90;7.00;;;3.90;79.50;;;2.56;70.51;101699.44;5032002;28;20148;-82
2022/03/07 08:25:12;;;;;;;16.98;6.75;;;3.90;79.40;;;2.58;69.42;101701.06;5031305;28;20120;-82
2022/03/07 08:27:39;;;;;;;12.65;6.38;;;3.90;79.20;;;2.59;70.48;101702.81;5031426;28;20116;-82
2022/03/07 08:30:11;;;;;;;9.43;6.40;;;4.00;78.80;;;2.62;70.75;101699.88;5029476;28;20045;-82
2022/03/07 08:32:40;;;;;;;9.55;5.57;;;4.00;78.60;;;2.67;68.79;101695.06;5032320;28;20448;-83
2022/03/07 08:35:10;;;;;;;10.50;5.72;;;4.10;78.30;;;2.74;69.37;101703.56;5030869;28;20067;-83
2022/03/07 08:37:39;;;;;;;7.63;5.68;;;4.10;78.30;;;2.69;69.24;101700.34;5031772;28;20053;-84
2022/03/07 08:40:10;;;;;;;6.72;4.93;;;4.20;76.50;;;2.74;68.42;101701.75;5029233;28;20041;-83
2022/03/07 08:42:38;;;;;;;8.02;4.80;;;4.20;76.70;;;2.74;65.94;101704.44;5028287;28;20741;-83
2022/03/07 08:45:07;;;;;;;8.32;4.82;;;4.20;76.20;;;2.74;65.41;101707.13;5028001;28;20051;-84
2022/03/07 08:47:36;;;;;;;7.90;4.78;;;4.20;75.20;;;2.74;65.82;101703.56;5029963;28;20457;-83
2022/03/07 08:50:06;;;;;;;5.95;4.47;;;4.30;75.40;;;2.79;66.30;101704.13;5026908;28;20041;-83
2022/03/07 08:52:33;;;;;;;7.63;4.90;;;4.30;74.60;;;2.86;66.02;101709.94;5031130;28;20041;-83
2022/03/07 08:55:01;;;;;;;6.85;4.28;;;4.30;74.80;;;2.92;64.95;101717.59;5031403;28;20111;-83
2022/03/07 08:57:29;;;;;;;8.85;5.68;;;4.40;74.60;;;2.90;64.60;101704.25;5028645;28;20041;-83
2022/03/07 08:59:57;;;;;;;7.70;4.80;;;4.40;73.90;;;2.87;62.80;101707.13;5003470;28;20526;-83
2022/03/07 09:02:25;;;;;;;6.75;4.55;;;4.40;73.50;;;2.83;64.02;101711.00;5003391;28;20042;-83
2022/03/07 09:04:52;;;;;;;7.75;5.15;;;4.60;73.40;;;2.88;62.48;101700.81;5006212;28;20594;-83
2022/03/07 09:07:19;;;;;;;8.30;4.97;;;4.50;73.50;;;2.89;62.67;101707.03;4988166;28;20058;-84
2022/03/07 09:09:47;;;;;;;8.52;5.07;;;4.50;73.20;;;2.92;64.21;101707.69;4999508;28;20818;-83
2022/03/07 09:12:14;;;;;;;6.30;4.35;;;4.50;73.10;;;2.95;62.64;101706.59;5010235;28;20057;-83
2022/03/07 09:14:43;;;;;;;9.02;4.85;;;4.50;73.00;;;2.93;63.07;101692.41;5010961;28;20615;-84
2022/03/07 09:17:11;;;;;;;7.30;4.93;;;4.50;72.30;;;2.93;62.47;101698.66;5008116;28;20492;-82
2022/03/07 09:19:38;;;;;;;8.50;4.70;;;4.50;72.00;;;2.91;62.33;101688.97;5004154;28;20081;-84
2022/03/07 09:22:05;;;;;;;8.73;5.13;;;4.50;72.40;;;2.92;63.41;101691.56;4995694;28;20416;-84
2022/03/07 09:24:33;;;;;;;7.38;4.65;;;4.50;72.80;;;2.98;63.30;101692.97;5011104;28;20097;-83
2022/03/07 09:27:00;;;;;;;11.25;5.43;;;4.50;72.90;;;3.04;64.21;101686.28;5010355;28;20034;-84
2022/03/07 09:29:27;;;;;;;6.68;4.70;;;4.60;73.40;;;3.05;62.56;101688.88;5006488;28;20436;-85
2022/03/07 09:31:56;;;;;;;6.95;4.25;;;4.60;72.90;;;3.09;63.90;101682.31;5010515;28;20042;-85
2022/03/07 09:34:23;;;;;;;6.35;4.15;;;4.60;72.80;;;3.06;63.80;101682.53;5011846;28;20445;-88
2022/03/07 09:36:51;;;;;;;9.00;4.72;;;4.60;72.90;;;3.07;61.22;101678.88;5009815;28;20501;-84
2022/03/07 09:39:18;;;;;;;9.02;4.20;;;4.60;72.20;;;3.08;62.37;101664.44;4990198;28;20113;-84
2022/03/07 09:41:45;;;;;;;8.27;4.60;;;4.60;72.40;;;3.16;62.40;101679.19;5009830;28;20403;-82
2022/03/07 09:44:13;;;;;;;7.63;4.70;;;4.70;72.70;;;3.20;62.45;101697.72;5011278;28;20049;-83
2022/03/07 09:46:40;;;;;;;8.57;4.63;;;4.70;72.70;;;3.20;62.16;101684.25;5010995;28;20077;-82
2022/03/07 09:49:09;;;;;;;7.22;4.57;;;4.70;71.90;;;3.10;60.50;101672.41;5005558;28;20357;-85
2022/03/07 09:51:36;;;;;;;7.07;4.50;;;4.70;71.10;;;3.13;61.04;101675.75;5009038;28;20040;-82
2022/03/07 09:54:04;;;;;;;5.80;3.90;;;4.70;71.40;;;3.20;61.65;101689.66;5010754;28;20054;-88
2022/03/07 09:56:31;;;;;;;6.97;4.53;;;4.70;72.00;;;3.21;60.66;101677.91;5011232;28;20045;-87
2022/03/07 09:58:58;;;;;;;7.18;3.92;;;4.80;71.50;;;3.27;61.35;101676.59;5029307;23;20065;-82
2022/03/07 10:01:25;;;;;;;8.15;4.35;;;4.80;71.90;;;3.30;61.33;101663.81;5028025;28;20041;-82
2022/03/07 10:04:05;;;;;;;6.53;3.97;;;4.80;71.90;;;3.34;61.53;101669.81;5030777;28;20164;-81
2022/03/07 10:06:33;;;;;;;7.22;4.13;;;4.80;71.60;;;3.40;62.57;101679.28;5030612;28;20072;-82
2022/03/07 10:09:01;;;;;;;7.60;3.90;;;4.90;72.30;;;3.40;60.70;101672.06;5017194;28;20039;-81
2022/03/07 10:11:31;;;;;;;5.70;4.00;;;4.90;71.80;;;3.42;61.82;101664.75;5008387;28;20046;-84
2022/03/07 10:14:00;;;;;;;5.68;3.75;;;4.90;71.30;;;3.44;61.72;101668.19;5011116;28;20045;-81